sensor_id;sensor_type;location;lat;lon;timestamp;P1;durP1;ratioP1;P2;durP2;ratioP2
68216;SDS011;55037;52.354;4.992;2023-03-23T00:02:14;5.43;;;2.83;;
68216;SDS011;55037;52.354;4.992;2023-03-23T00:04:41;7.17;;;3.40;;
68216;SDS011;55037;52.354;4.992;2023-03-23T00:07:08;7.75;;;3.95;;
68216;SDS011;55037;52.354;4.992;2023-03-23T00:09:34;6.93;;;3.53;;
68216;SDS011;55037;52.354;4.992;2023-03-23T00:12:07;4.68;;;2.85;;
68216;SDS011;55037;52.354;4.992;2023-03-23T00:14:33;7.57;;;3.65;;
68216;SDS011;55037;52.354;4.992;2023-03-23T00:17:08;6.83;;;3.60;;
68216;SDS011;55037;52.354;4.992;2023-03-23T00:19:37;7.50;;;3.30;;
68216;SDS011;55037;52.354;4.992;2023-03-23T00:22:13;4.75;;;2.90;;
68216;SDS011;55037;52.354;4.992;2023-03-23T00:24:41;8.93;;;3.65;;
68216;SDS011;55037;52.354;4.992;2023-03-23T00:27:08;8.93;;;3.22;;
68216;SDS011;55037;52.354;4.992;2023-03-23T00:29:38;4.90;;;3.17;;
68216;SDS011;55037;52.354;4.992;2023-03-23T00:32:05;7.35;;;2.78;;
68216;SDS011;55037;52.354;4.992;2023-03-23T00:34:32;4.82;;;2.70;;
68216;SDS011;55037;52.354;4.992;2023-03-23T00:36:59;6.00;;;3.22;;
68216;SDS011;55037;52.354;4.992;2023-03-23T00:39:26;8.50;;;3.25;;
68216;SDS011;55037;52.354;4.992;2023-03-23T00:41:54;6.97;;;2.97;;
68216;SDS011;55037;52.354;4.992;2023-03-23T00:44:29;14.50;;;4.97;;
68216;SDS011;55037;52.354;4.992;2023-03-23T00:46:57;7.63;;;2.70;;
68216;SDS011;55037;52.354;4.992;2023-03-23T00:49:25;5.63;;;2.75;;
68216;SDS011;55037;52.354;4.992;2023-03-23T00:51:52;6.32;;;2.63;;
68216;SDS011;55037;52.354;4.992;2023-03-23T00:54:20;8.23;;;2.73;;
68216;SDS011;55037;52.354;4.992;2023-03-23T00:56:49;6.38;;;2.67;;
68216;SDS011;55037;52.354;4.992;2023-03-23T00:59:15;7.82;;;2.70;;
68216;SDS011;55037;52.354;4.992;2023-03-23T01:01:43;6.60;;;2.65;;
68216;SDS011;55037;52.354;4.992;2023-03-23T01:04:10;7.03;;;2.60;;
68216;SDS011;55037;52.354;4.992;2023-03-23T01:06:38;6.17;;;2.37;;
68216;SDS011;55037;52.354;4.992;2023-03-23T01:09:10;9.23;;;3.05;;
68216;SDS011;55037;52.354;4.992;2023-03-23T01:11:41;7.28;;;3.00;;
68216;SDS011;55037;52.354;4.992;2023-03-23T01:14:07;5.18;;;2.30;;
68216;SDS011;55037;52.354;4.992;2023-03-23T01:16:34;5.25;;;2.33;;
68216;SDS011;55037;52.354;4.992;2023-03-23T01:19:00;3.93;;;2.20;;
68216;SDS011;55037;52.354;4.992;2023-03-23T01:21:27;7.28;;;2.97;;
68216;SDS011;55037;52.354;4.992;2023-03-23T01:23:53;4.53;;;2.80;;
68216;SDS011;55037;52.354;4.992;2023-03-23T01:26:20;6.45;;;2.85;;
68216;SDS011;55037;52.354;4.992;2023-03-23T01:28:48;5.22;;;2.63;;
68216;SDS011;55037;52.354;4.992;2023-03-23T01:31:16;7.13;;;2.30;;
68216;SDS011;55037;52.354;4.992;2023-03-23T01:33:46;4.60;;;2.15;;
68216;SDS011;55037;52.354;4.992;2023-03-23T01:36:17;6.13;;;2.85;;
68216;SDS011;55037;52.354;4.992;2023-03-23T01:38:45;3.67;;;2.17;;
68216;SDS011;55037;52.354;4.992;2023-03-23T01:41:13;8.60;;;2.55;;
68216;SDS011;55037;52.354;4.992;2023-03-23T01:43:54;5.50;;;1.90;;
68216;SDS011;55037;52.354;4.992;2023-03-23T01:46:58;5.03;;;2.08;;
68216;SDS011;55037;52.354;4.992;2023-03-23T01:49:26;4.90;;;2.53;;
68216;SDS011;55037;52.354;4.992;2023-03-23T01:51:56;5.43;;;2.60;;
68216;SDS011;55037;52.354;4.992;2023-03-23T01:54:29;5.43;;;2.40;;
68216;SDS011;55037;52.354;4.992;2023-03-23T01:56:59;5.57;;;2.00;;
68216;SDS011;55037;52.354;4.992;2023-03-23T01:59:27;9.00;;;2.60;;
68216;SDS011;55037;52.354;4.992;2023-03-23T02:02:12;6.50;;;2.55;;
68216;SDS011;55037;52.354;4.992;2023-03-23T02:04:40;4.45;;;2.10;;
68216;SDS011;55037;52.354;4.992;2023-03-23T02:07:09;4.97;;;2.15;;
68216;SDS011;55037;52.354;4.992;2023-03-23T02:09:38;4.50;;;2.00;;
68216;SDS011;55037;52.354;4.992;2023-03-23T02:12:05;7.13;;;2.17;;
68216;SDS011;55037;52.354;4.992;2023-03-23T02:14:32;5.20;;;1.95;;
68216;SDS011;55037;52.354;4.992;2023-03-23T02:22:44;6.93;;;2.17;;
68216;SDS011;55037;52.354;4.992;2023-03-23T02:34:27;4.72;;;1.90;;
68216;SDS011;55037;52.354;4.992;2023-03-23T02:37:01;5.60;;;2.07;;
68216;SDS011;55037;52.354;4.992;2023-03-23T02:39:32;4.57;;;2.20;;
68216;SDS011;55037;52.354;4.992;2023-03-23T02:42:15;3.53;;;2.10;;
68216;SDS011;55037;52.354;4.992;2023-03-23T02:44:44;4.43;;;2.05;;
68216;SDS011;55037;52.354;4.992;2023-03-23T02:47:14;6.70;;;2.50;;
68216;SDS011;55037;52.354;4.992;2023-03-23T02:49:44;4.17;;;2.17;;
68216;SDS011;55037;52.354;4.992;2023-03-23T02:52:16;4.60;;;1.90;;
68216;SDS011;55037;52.354;4.992;2023-03-23T02:54:48;4.13;;;1.80;;
68216;SDS011;55037;52.354;4.992;2023-03-23T02:57:16;6.95;;;2.10;;
68216;SDS011;55037;52.354;4.992;2023-03-23T02:59:45;5.95;;;2.40;;
68216;SDS011;55037;52.354;4.992;2023-03-23T03:04:40;5.32;;;2.03;;
68216;SDS011;55037;52.354;4.992;2023-03-23T03:13:03;5.72;;;2.05;;
68216;SDS011;55037;52.354;4.992;2023-03-23T03:15:44;3.40;;;2.17;;
68216;SDS011;55037;52.354;4.992;2023-03-23T03:18:32;4.30;;;2.05;;
68216;SDS011;55037;52.354;4.992;2023-03-23T03:21:04;6.85;;;2.10;;
68216;SDS011;55037;52.354;4.992;2023-03-23T03:23:36;4.00;;;2.13;;
68216;SDS011;55037;52.354;4.992;2023-03-23T03:26:07;8.27;;;2.47;;
68216;SDS011;55037;52.354;4.992;2023-03-23T03:28:45;5.60;;;2.20;;
68216;SDS011;55037;52.354;4.992;2023-03-23T03:31:15;5.72;;;2.28;;
68216;SDS011;55037;52.354;4.992;2023-03-23T03:33:44;5.68;;;2.03;;
68216;SDS011;55037;52.354;4.992;2023-03-23T03:36:15;9.32;;;2.40;;
68216;SDS011;55037;52.354;4.992;2023-03-23T03:38:47;6.30;;;2.17;;
68216;SDS011;55037;52.354;4.992;2023-03-23T03:41:15;8.07;;;2.57;;
68216;SDS011;55037;52.354;4.992;2023-03-23T03:43:42;4.97;;;2.53;;
68216;SDS011;55037;52.354;4.992;2023-03-23T03:46:08;6.78;;;2.85;;
68216;SDS011;55037;52.354;4.992;2023-03-23T03:48:34;4.25;;;2.30;;
68216;SDS011;55037;52.354;4.992;2023-03-23T03:51:00;7.00;;;2.42;;
68216;SDS011;55037;52.354;4.992;2023-03-23T03:53:30;6.53;;;2.20;;
68216;SDS011;55037;52.354;4.992;2023-03-23T03:55:56;5.10;;;2.00;;
68216;SDS011;55037;52.354;4.992;2023-03-23T03:58:26;12.10;;;2.38;;
68216;SDS011;55037;52.354;4.992;2023-03-23T04:01:09;9.23;;;2.83;;
68216;SDS011;55037;52.354;4.992;2023-03-23T04:03:37;6.00;;;2.10;;
68216;SDS011;55037;52.354;4.992;2023-03-23T04:06:20;11.80;;;2.40;;
68216;SDS011;55037;52.354;4.992;2023-03-23T04:08:47;8.38;;;2.20;;
68216;SDS011;55037;52.354;4.992;2023-03-23T04:11:14;6.40;;;1.92;;
68216;SDS011;55037;52.354;4.992;2023-03-23T04:13:41;7.22;;;2.78;;
68216;SDS011;55037;52.354;4.992;2023-03-23T04:16:17;7.72;;;2.55;;
68216;SDS011;55037;52.354;4.992;2023-03-23T04:18:44;10.80;;;2.47;;
68216;SDS011;55037;52.354;4.992;2023-03-23T04:21:13;7.85;;;2.70;;
68216;SDS011;55037;52.354;4.992;2023-03-23T04:23:40;5.20;;;1.88;;
68216;SDS011;55037;52.354;4.992;2023-03-23T04:26:07;6.80;;;2.55;;
68216;SDS011;55037;52.354;4.992;2023-03-23T04:28:38;8.82;;;2.65;;
68216;SDS011;55037;52.354;4.992;2023-03-23T04:31:34;8.20;;;2.50;;
68216;SDS011;55037;52.354;4.992;2023-03-23T04:34:19;7.35;;;2.22;;
68216;SDS011;55037;52.354;4.992;2023-03-23T04:36:48;6.40;;;2.22;;
68216;SDS011;55037;52.354;4.992;2023-03-23T04:39:19;7.75;;;2.00;;
68216;SDS011;55037;52.354;4.992;2023-03-23T04:41:46;6.68;;;2.00;;
68216;SDS011;55037;52.354;4.992;2023-03-23T04:44:42;6.07;;;2.03;;
68216;SDS011;55037;52.354;4.992;2023-03-23T04:47:19;8.25;;;1.80;;
68216;SDS011;55037;52.354;4.992;2023-03-23T04:49:52;8.02;;;2.28;;
68216;SDS011;55037;52.354;4.992;2023-03-23T04:52:26;9.73;;;2.55;;
68216;SDS011;55037;52.354;4.992;2023-03-23T04:54:56;11.00;;;2.78;;
68216;SDS011;55037;52.354;4.992;2023-03-23T04:57:23;7.30;;;2.37;;
68216;SDS011;55037;52.354;4.992;2023-03-23T05:00:16;11.93;;;3.08;;
68216;SDS011;55037;52.354;4.992;2023-03-23T05:02:51;8.45;;;2.55;;
68216;SDS011;55037;52.354;4.992;2023-03-23T05:05:21;18.40;;;3.95;;
68216;SDS011;55037;52.354;4.992;2023-03-23T05:07:50;18.65;;;3.47;;
68216;SDS011;55037;52.354;4.992;2023-03-23T05:10:20;8.50;;;2.67;;
68216;SDS011;55037;52.354;4.992;2023-03-23T05:12:46;14.30;;;2.83;;
68216;SDS011;55037;52.354;4.992;2023-03-23T05:15:13;15.98;;;3.40;;
68216;SDS011;55037;52.354;4.992;2023-03-23T05:17:43;13.23;;;2.60;;
68216;SDS011;55037;52.354;4.992;2023-03-23T05:20:15;11.00;;;2.63;;
68216;SDS011;55037;52.354;4.992;2023-03-23T05:22:52;12.37;;;2.57;;
68216;SDS011;55037;52.354;4.992;2023-03-23T05:25:27;11.07;;;2.80;;
68216;SDS011;55037;52.354;4.992;2023-03-23T05:28:00;10.32;;;3.22;;
68216;SDS011;55037;52.354;4.992;2023-03-23T05:30:49;13.43;;;3.05;;
68216;SDS011;55037;52.354;4.992;2023-03-23T05:33:18;16.00;;;2.78;;
68216;SDS011;55037;52.354;4.992;2023-03-23T05:36:00;14.83;;;3.57;;
68216;SDS011;55037;52.354;4.992;2023-03-23T05:38:34;11.50;;;3.33;;
68216;SDS011;55037;52.354;4.992;2023-03-23T05:41:02;15.75;;;3.40;;
68216;SDS011;55037;52.354;4.992;2023-03-23T05:43:37;11.13;;;2.72;;
68216;SDS011;55037;52.354;4.992;2023-03-23T05:46:13;15.52;;;2.47;;
68216;SDS011;55037;52.354;4.992;2023-03-23T05:48:40;16.73;;;2.80;;
68216;SDS011;55037;52.354;4.992;2023-03-23T05:51:12;13.93;;;3.08;;
68216;SDS011;55037;52.354;4.992;2023-03-23T05:53:42;16.15;;;3.17;;
68216;SDS011;55037;52.354;4.992;2023-03-23T05:56:09;19.52;;;3.47;;
68216;SDS011;55037;52.354;4.992;2023-03-23T05:58:57;15.65;;;3.20;;
68216;SDS011;55037;52.354;4.992;2023-03-23T06:01:25;16.40;;;3.17;;
68216;SDS011;55037;52.354;4.992;2023-03-23T06:03:51;17.10;;;2.80;;
68216;SDS011;55037;52.354;4.992;2023-03-23T06:06:25;16.30;;;2.70;;
68216;SDS011;55037;52.354;4.992;2023-03-23T06:09:03;17.25;;;2.90;;
68216;SDS011;55037;52.354;4.992;2023-03-23T06:11:41;14.45;;;3.13;;
68216;SDS011;55037;52.354;4.992;2023-03-23T06:14:25;11.73;;;2.67;;
68216;SDS011;55037;52.354;4.992;2023-03-23T06:16:52;14.55;;;2.47;;
68216;SDS011;55037;52.354;4.992;2023-03-23T06:19:18;15.07;;;3.05;;
68216;SDS011;55037;52.354;4.992;2023-03-23T06:21:56;15.10;;;3.03;;
68216;SDS011;55037;52.354;4.992;2023-03-23T06:24:40;14.82;;;3.33;;
68216;SDS011;55037;52.354;4.992;2023-03-23T06:27:07;21.77;;;3.83;;
68216;SDS011;55037;52.354;4.992;2023-03-23T06:29:36;15.75;;;2.72;;
68216;SDS011;55037;52.354;4.992;2023-03-23T06:32:03;17.92;;;3.10;;
68216;SDS011;55037;52.354;4.992;2023-03-23T06:34:31;18.58;;;3.15;;
68216;SDS011;55037;52.354;4.992;2023-03-23T06:37:26;18.08;;;3.60;;
68216;SDS011;55037;52.354;4.992;2023-03-23T06:40:02;18.13;;;2.77;;
68216;SDS011;55037;52.354;4.992;2023-03-23T06:42:37;18.42;;;3.03;;
68216;SDS011;55037;52.354;4.992;2023-03-23T06:45:29;17.88;;;3.58;;
68216;SDS011;55037;52.354;4.992;2023-03-23T06:48:15;21.35;;;3.65;;
68216;SDS011;55037;52.354;4.992;2023-03-23T06:50:43;26.33;;;4.05;;
68216;SDS011;55037;52.354;4.992;2023-03-23T06:53:11;25.07;;;4.10;;
68216;SDS011;55037;52.354;4.992;2023-03-23T06:55:37;22.98;;;3.65;;
68216;SDS011;55037;52.354;4.992;2023-03-23T06:58:08;18.00;;;3.38;;
68216;SDS011;55037;52.354;4.992;2023-03-23T07:00:34;23.70;;;3.47;;
68216;SDS011;55037;52.354;4.992;2023-03-23T07:03:01;21.15;;;3.90;;
68216;SDS011;55037;52.354;4.992;2023-03-23T07:05:28;17.27;;;3.07;;
68216;SDS011;55037;52.354;4.992;2023-03-23T07:07:55;22.55;;;3.40;;
68216;SDS011;55037;52.354;4.992;2023-03-23T07:10:50;15.20;;;3.22;;
68216;SDS011;55037;52.354;4.992;2023-03-23T07:13:21;11.32;;;2.95;;
68216;SDS011;55037;52.354;4.992;2023-03-23T07:15:51;17.75;;;3.13;;
68216;SDS011;55037;52.354;4.992;2023-03-23T07:18:18;18.93;;;3.57;;
68216;SDS011;55037;52.354;4.992;2023-03-23T07:20:48;17.23;;;3.00;;
68216;SDS011;55037;52.354;4.992;2023-03-23T07:23:16;16.48;;;3.83;;
68216;SDS011;55037;52.354;4.992;2023-03-23T07:26:02;14.73;;;3.60;;
68216;SDS011;55037;52.354;4.992;2023-03-23T07:28:35;11.75;;;3.03;;
68216;SDS011;55037;52.354;4.992;2023-03-23T07:31:12;15.00;;;3.20;;
68216;SDS011;55037;52.354;4.992;2023-03-23T07:33:38;29.75;;;3.20;;
68216;SDS011;55037;52.354;4.992;2023-03-23T07:36:05;14.25;;;2.88;;
68216;SDS011;55037;52.354;4.992;2023-03-23T07:38:33;23.98;;;3.15;;
68216;SDS011;55037;52.354;4.992;2023-03-23T07:40:59;19.80;;;3.95;;
68216;SDS011;55037;52.354;4.992;2023-03-23T07:43:25;18.27;;;3.17;;
68216;SDS011;55037;52.354;4.992;2023-03-23T07:46:01;21.67;;;2.95;;
68216;SDS011;55037;52.354;4.992;2023-03-23T07:48:54;18.15;;;3.88;;
68216;SDS011;55037;52.354;4.992;2023-03-23T07:51:24;22.95;;;3.17;;
68216;SDS011;55037;52.354;4.992;2023-03-23T07:53:51;18.13;;;3.30;;
68216;SDS011;55037;52.354;4.992;2023-03-23T07:56:37;18.57;;;3.77;;
68216;SDS011;55037;52.354;4.992;2023-03-23T07:59:13;19.77;;;3.70;;
68216;SDS011;55037;52.354;4.992;2023-03-23T08:01:41;18.33;;;3.92;;
68216;SDS011;55037;52.354;4.992;2023-03-23T08:04:27;17.50;;;3.50;;
68216;SDS011;55037;52.354;4.992;2023-03-23T08:07:06;16.98;;;3.03;;
68216;SDS011;55037;52.354;4.992;2023-03-23T08:09:46;14.10;;;2.73;;
68216;SDS011;55037;52.354;4.992;2023-03-23T08:12:28;15.73;;;3.25;;
68216;SDS011;55037;52.354;4.992;2023-03-23T08:15:13;13.65;;;3.33;;
68216;SDS011;55037;52.354;4.992;2023-03-23T08:17:59;20.60;;;2.83;;
68216;SDS011;55037;52.354;4.992;2023-03-23T08:20:45;15.73;;;3.28;;
68216;SDS011;55037;52.354;4.992;2023-03-23T08:23:29;18.10;;;2.83;;
68216;SDS011;55037;52.354;4.992;2023-03-23T08:26:19;8.63;;;2.47;;
68216;SDS011;55037;52.354;4.992;2023-03-23T08:29:04;13.18;;;2.33;;
68216;SDS011;55037;52.354;4.992;2023-03-23T08:31:46;12.48;;;2.35;;
68216;SDS011;55037;52.354;4.992;2023-03-23T08:34:30;12.85;;;2.70;;
68216;SDS011;55037;52.354;4.992;2023-03-23T08:37:21;10.90;;;2.50;;
68216;SDS011;55037;52.354;4.992;2023-03-23T08:39:55;14.15;;;2.70;;
68216;SDS011;55037;52.354;4.992;2023-03-23T08:42:41;14.98;;;2.70;;
68216;SDS011;55037;52.354;4.992;2023-03-23T08:45:27;11.27;;;2.53;;
68216;SDS011;55037;52.354;4.992;2023-03-23T08:48:19;12.02;;;2.08;;
68216;SDS011;55037;52.354;4.992;2023-03-23T08:51:23;10.17;;;2.50;;
68216;SDS011;55037;52.354;4.992;2023-03-23T08:54:08;14.27;;;2.83;;
68216;SDS011;55037;52.354;4.992;2023-03-23T08:56:53;15.43;;;3.15;;
68216;SDS011;55037;52.354;4.992;2023-03-23T08:59:31;12.50;;;3.15;;
68216;SDS011;55037;52.354;4.992;2023-03-23T09:02:20;17.48;;;3.50;;
68216;SDS011;55037;52.354;4.992;2023-03-23T09:04:53;14.20;;;3.00;;
68216;SDS011;55037;52.354;4.992;2023-03-23T09:07:46;14.73;;;3.63;;
68216;SDS011;55037;52.354;4.992;2023-03-23T09:10:15;14.90;;;3.25;;
68216;SDS011;55037;52.354;4.992;2023-03-23T09:12:42;13.43;;;3.05;;
68216;SDS011;55037;52.354;4.992;2023-03-23T09:15:10;12.27;;;3.22;;
68216;SDS011;55037;52.354;4.992;2023-03-23T09:17:40;12.57;;;3.10;;
68216;SDS011;55037;52.354;4.992;2023-03-23T09:20:08;13.73;;;3.08;;
68216;SDS011;55037;52.354;4.992;2023-03-23T09:22:41;10.75;;;2.78;;
68216;SDS011;55037;52.354;4.992;2023-03-23T09:25:12;13.57;;;3.17;;
68216;SDS011;55037;52.354;4.992;2023-03-23T09:27:41;15.32;;;3.08;;
68216;SDS011;55037;52.354;4.992;2023-03-23T09:30:09;17.60;;;3.93;;
68216;SDS011;55037;52.354;4.992;2023-03-23T09:32:37;15.30;;;3.25;;
68216;SDS011;55037;52.354;4.992;2023-03-23T09:35:05;14.70;;;3.38;;
68216;SDS011;55037;52.354;4.992;2023-03-23T09:37:34;13.73;;;3.25;;
68216;SDS011;55037;52.354;4.992;2023-03-23T09:40:04;14.00;;;3.50;;
68216;SDS011;55037;52.354;4.992;2023-03-23T09:48:11;12.68;;;2.95;;
68216;SDS011;55037;52.354;4.992;2023-03-23T09:50:57;17.08;;;2.97;;
68216;SDS011;55037;52.354;4.992;2023-03-23T09:53:41;16.73;;;3.35;;
68216;SDS011;55037;52.354;4.992;2023-03-23T09:56:13;13.93;;;3.17;;
68216;SDS011;55037;52.354;4.992;2023-03-23T09:58:51;13.02;;;3.13;;
68216;SDS011;55037;52.354;4.992;2023-03-23T10:04:07;14.05;;;3.22;;
68216;SDS011;55037;52.354;4.992;2023-03-23T10:06:49;20.27;;;3.65;;
68216;SDS011;55037;52.354;4.992;2023-03-23T10:09:17;18.43;;;3.00;;
68216;SDS011;55037;52.354;4.992;2023-03-23T10:11:48;14.38;;;3.20;;
68216;SDS011;55037;52.354;4.992;2023-03-23T10:14:45;10.75;;;3.33;;
68216;SDS011;55037;52.354;4.992;2023-03-23T10:17:41;13.57;;;3.10;;
68216;SDS011;55037;52.354;4.992;2023-03-23T10:20:42;17.95;;;3.38;;
68216;SDS011;55037;52.354;4.992;2023-03-23T10:25:48;10.80;;;2.85;;
68216;SDS011;55037;52.354;4.992;2023-03-23T10:28:50;11.05;;;2.90;;
68216;SDS011;55037;52.354;4.992;2023-03-23T10:31:26;12.25;;;3.10;;
68216;SDS011;55037;52.354;4.992;2023-03-23T10:33:58;16.13;;;3.80;;
68216;SDS011;55037;52.354;4.992;2023-03-23T10:36:29;10.47;;;2.60;;
68216;SDS011;55037;52.354;4.992;2023-03-23T10:41:28;14.88;;;3.15;;
68216;SDS011;55037;52.354;4.992;2023-03-23T10:43:55;16.35;;;3.40;;
68216;SDS011;55037;52.354;4.992;2023-03-23T10:46:37;12.07;;;3.20;;
68216;SDS011;55037;52.354;4.992;2023-03-23T10:49:17;11.27;;;3.00;;
68216;SDS011;55037;52.354;4.992;2023-03-23T10:51:49;9.40;;;2.85;;
68216;SDS011;55037;52.354;4.992;2023-03-23T10:54:35;11.85;;;2.95;;
68216;SDS011;55037;52.354;4.992;2023-03-23T10:57:13;11.45;;;2.90;;
68216;SDS011;55037;52.354;4.992;2023-03-23T10:59:58;14.00;;;3.38;;
68216;SDS011;55037;52.354;4.992;2023-03-23T11:02:46;15.93;;;3.30;;
68216;SDS011;55037;52.354;4.992;2023-03-23T11:05:33;17.30;;;3.15;;
68216;SDS011;55037;52.354;4.992;2023-03-23T11:08:03;14.40;;;2.83;;
68216;SDS011;55037;52.354;4.992;2023-03-23T11:10:39;16.75;;;2.72;;
68216;SDS011;55037;52.354;4.992;2023-03-23T11:13:14;17.25;;;3.70;;
68216;SDS011;55037;52.354;4.992;2023-03-23T11:15:42;13.60;;;3.10;;
68216;SDS011;55037;52.354;4.992;2023-03-23T11:18:20;14.48;;;3.15;;
68216;SDS011;55037;52.354;4.992;2023-03-23T11:20:54;9.95;;;2.85;;
68216;SDS011;55037;52.354;4.992;2023-03-23T11:23:27;15.32;;;3.20;;
68216;SDS011;55037;52.354;4.992;2023-03-23T11:28:35;15.90;;;3.03;;
68216;SDS011;55037;52.354;4.992;2023-03-23T11:31:07;15.32;;;3.03;;
68216;SDS011;55037;52.354;4.992;2023-03-23T11:33:46;14.95;;;3.72;;
68216;SDS011;55037;52.354;4.992;2023-03-23T11:36:18;10.38;;;3.40;;
68216;SDS011;55037;52.354;4.992;2023-03-23T11:38:45;15.27;;;3.05;;
68216;SDS011;55037;52.354;4.992;2023-03-23T11:41:12;17.70;;;3.43;;
68216;SDS011;55037;52.354;4.992;2023-03-23T11:43:44;16.48;;;3.55;;
68216;SDS011;55037;52.354;4.992;2023-03-23T11:49:10;15.35;;;2.58;;
68216;SDS011;55037;52.354;4.992;2023-03-23T11:51:52;13.52;;;3.28;;
68216;SDS011;55037;52.354;4.992;2023-03-23T11:54:36;14.37;;;3.90;;
68216;SDS011;55037;52.354;4.992;2023-03-23T11:57:09;15.05;;;3.20;;
68216;SDS011;55037;52.354;4.992;2023-03-23T11:59:39;14.75;;;3.70;;
68216;SDS011;55037;52.354;4.992;2023-03-23T12:10:56;12.27;;;3.38;;
68216;SDS011;55037;52.354;4.992;2023-03-23T12:13:38;14.90;;;2.78;;
68216;SDS011;55037;52.354;4.992;2023-03-23T12:16:33;11.57;;;2.53;;
68216;SDS011;55037;52.354;4.992;2023-03-23T12:27:50;11.95;;;3.33;;
68216;SDS011;55037;52.354;4.992;2023-03-23T12:30:31;16.25;;;3.10;;
68216;SDS011;55037;52.354;4.992;2023-03-23T12:36:00;11.03;;;3.27;;
68216;SDS011;55037;52.354;4.992;2023-03-23T12:41:44;13.48;;;3.45;;
68216;SDS011;55037;52.354;4.992;2023-03-23T12:44:20;12.23;;;2.85;;
68216;SDS011;55037;52.354;4.992;2023-03-23T12:49:56;8.80;;;2.80;;
68216;SDS011;55037;52.354;4.992;2023-03-23T12:52:32;9.52;;;2.40;;
68216;SDS011;55037;52.354;4.992;2023-03-23T12:55:12;10.85;;;2.55;;
68216;SDS011;55037;52.354;4.992;2023-03-23T13:06:18;14.18;;;3.25;;
68216;SDS011;55037;52.354;4.992;2023-03-23T13:09:24;11.13;;;3.17;;
68216;SDS011;55037;52.354;4.992;2023-03-23T13:12:02;11.82;;;3.22;;
68216;SDS011;55037;52.354;4.992;2023-03-23T13:20:04;10.27;;;2.78;;
68216;SDS011;55037;52.354;4.992;2023-03-23T13:22:59;13.90;;;3.08;;
68216;SDS011;55037;52.354;4.992;2023-03-23T13:25:44;11.07;;;3.03;;
68216;SDS011;55037;52.354;4.992;2023-03-23T13:28:20;12.20;;;3.28;;
68216;SDS011;55037;52.354;4.992;2023-03-23T13:31:04;14.50;;;3.53;;
68216;SDS011;55037;52.354;4.992;2023-03-23T13:34:24;9.25;;;3.10;;
68216;SDS011;55037;52.354;4.992;2023-03-23T13:36:39;11.57;;;2.92;;
68216;SDS011;55037;52.354;4.992;2023-03-23T13:49:52;13.48;;;3.13;;
68216;SDS011;55037;52.354;4.992;2023-03-23T13:52:25;17.65;;;3.30;;
68216;SDS011;55037;52.354;4.992;2023-03-23T14:03:02;12.45;;;2.97;;
68216;SDS011;55037;52.354;4.992;2023-03-23T14:10:35;17.33;;;3.23;;
68216;SDS011;55037;52.354;4.992;2023-03-23T14:13:57;14.15;;;3.15;;
68216;SDS011;55037;52.354;4.992;2023-03-23T14:16:00;15.68;;;3.50;;
68216;SDS011;55037;52.354;4.992;2023-03-23T14:18:38;14.40;;;3.30;;
68216;SDS011;55037;52.354;4.992;2023-03-23T14:21:11;13.77;;;3.05;;
68216;SDS011;55037;52.354;4.992;2023-03-23T14:23:40;15.43;;;3.47;;
68216;SDS011;55037;52.354;4.992;2023-03-23T14:26:16;13.13;;;3.03;;
68216;SDS011;55037;52.354;4.992;2023-03-23T14:28:45;13.40;;;3.17;;
68216;SDS011;55037;52.354;4.992;2023-03-23T14:31:25;13.40;;;3.10;;
68216;SDS011;55037;52.354;4.992;2023-03-23T14:33:53;12.65;;;3.20;;
68216;SDS011;55037;52.354;4.992;2023-03-23T14:38:56;11.23;;;2.92;;
68216;SDS011;55037;52.354;4.992;2023-03-23T14:41:23;12.48;;;3.22;;
68216;SDS011;55037;52.354;4.992;2023-03-23T14:43:53;14.18;;;3.25;;
68216;SDS011;55037;52.354;4.992;2023-03-23T14:46:19;13.48;;;2.80;;
68216;SDS011;55037;52.354;4.992;2023-03-23T14:48:45;14.80;;;2.87;;
68216;SDS011;55037;52.354;4.992;2023-03-23T14:51:17;15.10;;;3.20;;
68216;SDS011;55037;52.354;4.992;2023-03-23T14:53:45;15.98;;;3.25;;
68216;SDS011;55037;52.354;4.992;2023-03-23T14:56:12;12.50;;;2.95;;
68216;SDS011;55037;52.354;4.992;2023-03-23T14:58:46;13.25;;;2.88;;
68216;SDS011;55037;52.354;4.992;2023-03-23T15:01:16;9.33;;;2.73;;
68216;SDS011;55037;52.354;4.992;2023-03-23T15:03:57;9.50;;;2.53;;
68216;SDS011;55037;52.354;4.992;2023-03-23T15:06:31;12.68;;;2.67;;
68216;SDS011;55037;52.354;4.992;2023-03-23T15:09:02;12.15;;;2.90;;
68216;SDS011;55037;52.354;4.992;2023-03-23T15:11:39;17.30;;;3.08;;
68216;SDS011;55037;52.354;4.992;2023-03-23T15:16:50;14.02;;;3.15;;
68216;SDS011;55037;52.354;4.992;2023-03-23T15:19:22;12.00;;;3.17;;
68216;SDS011;55037;52.354;4.992;2023-03-23T15:21:56;13.50;;;3.17;;
68216;SDS011;55037;52.354;4.992;2023-03-23T15:24:33;14.70;;;3.53;;
68216;SDS011;55037;52.354;4.992;2023-03-23T15:29:31;15.85;;;3.15;;
68216;SDS011;55037;52.354;4.992;2023-03-23T15:31:58;14.82;;;3.58;;
68216;SDS011;55037;52.354;4.992;2023-03-23T15:34:27;15.20;;;4.00;;
68216;SDS011;55037;52.354;4.992;2023-03-23T15:36:58;18.42;;;3.33;;
68216;SDS011;55037;52.354;4.992;2023-03-23T15:39:30;13.57;;;2.73;;
68216;SDS011;55037;52.354;4.992;2023-03-23T15:41:58;12.52;;;2.92;;
68216;SDS011;55037;52.354;4.992;2023-03-23T15:44:30;15.82;;;3.70;;
68216;SDS011;55037;52.354;4.992;2023-03-23T15:47:04;18.48;;;3.67;;
68216;SDS011;55037;52.354;4.992;2023-03-23T15:49:39;11.85;;;3.20;;
68216;SDS011;55037;52.354;4.992;2023-03-23T15:52:08;14.73;;;3.23;;
68216;SDS011;55037;52.354;4.992;2023-03-23T15:54:36;8.50;;;2.45;;
68216;SDS011;55037;52.354;4.992;2023-03-23T15:57:02;13.30;;;3.67;;
68216;SDS011;55037;52.354;4.992;2023-03-23T15:59:28;13.73;;;3.22;;
68216;SDS011;55037;52.354;4.992;2023-03-23T16:01:56;13.55;;;3.15;;
68216;SDS011;55037;52.354;4.992;2023-03-23T16:04:23;18.73;;;3.80;;
68216;SDS011;55037;52.354;4.992;2023-03-23T16:06:52;19.52;;;3.40;;
68216;SDS011;55037;52.354;4.992;2023-03-23T16:09:22;14.77;;;3.03;;
68216;SDS011;55037;52.354;4.992;2023-03-23T16:11:49;16.00;;;3.10;;
68216;SDS011;55037;52.354;4.992;2023-03-23T16:14:16;14.90;;;3.28;;
68216;SDS011;55037;52.354;4.992;2023-03-23T16:16:45;15.90;;;3.83;;
68216;SDS011;55037;52.354;4.992;2023-03-23T16:19:16;13.45;;;3.38;;
68216;SDS011;55037;52.354;4.992;2023-03-23T16:21:45;17.02;;;3.35;;
68216;SDS011;55037;52.354;4.992;2023-03-23T16:24:13;15.82;;;3.15;;
68216;SDS011;55037;52.354;4.992;2023-03-23T16:26:40;14.15;;;3.15;;
68216;SDS011;55037;52.354;4.992;2023-03-23T16:29:08;13.53;;;2.90;;
68216;SDS011;55037;52.354;4.992;2023-03-23T16:31:54;11.38;;;2.28;;
68216;SDS011;55037;52.354;4.992;2023-03-23T16:34:21;13.93;;;3.45;;
68216;SDS011;55037;52.354;4.992;2023-03-23T16:36:49;10.30;;;2.90;;
68216;SDS011;55037;52.354;4.992;2023-03-23T16:39:16;13.73;;;2.72;;
68216;SDS011;55037;52.354;4.992;2023-03-23T16:41:44;15.70;;;2.83;;
68216;SDS011;55037;52.354;4.992;2023-03-23T16:44:11;10.15;;;2.55;;
68216;SDS011;55037;52.354;4.992;2023-03-23T16:46:39;9.55;;;2.60;;
68216;SDS011;55037;52.354;4.992;2023-03-23T16:49:06;14.32;;;2.75;;
68216;SDS011;55037;52.354;4.992;2023-03-23T16:51:33;15.35;;;3.05;;
68216;SDS011;55037;52.354;4.992;2023-03-23T16:54:01;10.70;;;3.03;;
68216;SDS011;55037;52.354;4.992;2023-03-23T16:56:28;13.77;;;3.20;;
68216;SDS011;55037;52.354;4.992;2023-03-23T16:58:55;12.05;;;2.65;;
68216;SDS011;55037;52.354;4.992;2023-03-23T17:01:22;10.60;;;2.63;;
68216;SDS011;55037;52.354;4.992;2023-03-23T17:03:50;14.02;;;2.92;;
68216;SDS011;55037;52.354;4.992;2023-03-23T17:06:17;15.50;;;2.97;;
68216;SDS011;55037;52.354;4.992;2023-03-23T17:08:44;12.30;;;2.58;;
68216;SDS011;55037;52.354;4.992;2023-03-23T17:11:12;11.27;;;2.83;;